Middleton Island,

3:13 AM AKDT on September 17, 2014 (GMT -0800)
Seward | Change Station
CLOSE
Current Station
Airport
Location: Seward,
Elevation: 20 ft
Nearby Weather Stations

Elev 20 ft 60.13 °N, 149.42 °W | Updated 20 minutes ago

Light Rain
Light Rain
47 °F
Feels Like 47 °F
N
0
Wind Variable Wind from North

Today
High -- | Low -- °F
--% Chance of Precip.
Yesterday
High -- | Low -- °F
Precip. -- in
7:18 AM 7:59 PM
Last Quarter, 37% visible
Pressure 29.59 in
Visibility 9.0 miles
Clouds Scattered Clouds 2600 ft
Mostly Cloudy 3500 ft
Overcast 4800 ft
Dew Point 45 °F
Humidity 93%
Rainfall 0.28 in
Snow Depth Not available.
UV 0 out of 12
Pollen Not available.
Ozone Good
PM2.5 Good
Flu Activity Not available.
METAR PAWD 171053Z AUTO 00000KT 9SM -RA SCT026 BKN035 OVC048 08/07 A2958 RMK AO2 SLP018 P0009 T00830072 TSNO

More Conditions Fewer Conditions

Pressure 29.59 in
Visibility 9.0 miles
Clouds Scattered Clouds 2600 ft
Mostly Cloudy 3500 ft
Overcast 4800 ft
Dew Point 45 °F
Humidity 93%
Rainfall 0.28 in
Snow Depth Not available.
UV 0 out of 12
Pollen Not available.
Ozone Good
PM2.5 Good
Flu Activity Not available.
METAR PAWD 171053Z AUTO 00000KT 9SM -RA SCT026 BKN035 OVC048 08/07 A2958 RMK AO2 SLP018 P0009 T00830072 TSNO

More Conditions Fewer Conditions

10-Day Weather Forecast

Almanac

Astronomy

Sep. 17, 2014 Rise Set
Actual Time 7:18 AM AKDT 7:59 PM AKDT
Civil Twilight 6:37 AM AKDT 8:40 PM AKDT
Nautical Twilight 5:46 AM AKDT 9:30 PM AKDT
Astronomical Twilight 4:50 AM AKDT 10:25 PM AKDT
Moon 12:23 AM AKDT 5:14 PM AKDT
Length of Visible Light 14h 03m
Length of Day
12h 40m
Tomorrow will be 5m 16s shorter.
Last Quarter, 37% of the Moon is Illuminated
Today
Last Quarter
Sep 24
New
Oct 1
First Quarter
Oct 8
Full
Oct 15
Last Quarter

Community

WunderPhotos

Upload Photos

1,754,002 photos uploaded!

Nearby

Air Quality

  Air Quality AQ Index Pollutant
Yesterday Good
PM2.5
Current Good
PM2.5
Current Good
OZONE
Wednesday Good
OZONE
Wednesday Good
PM10
Thursday Good
OZONE
Thursday Good
PM10
Friday Good
OZONE
Friday Good
PM10

Snow Depth

Station Depth Elevation
No new snow has been reported.

Earthquake Activity

City Distance Mag. Time & Date
No recent earthquake activity has been reported nearby.
Minimum magnitude displayed is 2.5.

Coastal Water Temperatures

Place Temperature
No Stations Reporting

Nearby Weather Stations